createdAt,value
2023-01-25T00:00:16.024Z,0.00
2023-01-25T00:01:16.020Z,0.00
2023-01-25T00:02:16.098Z,0.00
2023-01-25T00:03:16.161Z,0.00
2023-01-25T00:04:15.984Z,0.00
2023-01-25T00:05:15.971Z,0.00
2023-01-25T00:06:15.947Z,0.00
2023-01-25T00:07:15.962Z,0.00
2023-01-25T00:08:15.978Z,0.00
2023-01-25T00:09:15.939Z,0.00
2023-01-25T00:10:15.916Z,0.00
2023-01-25T00:11:15.901Z,0.00
2023-01-25T00:12:15.912Z,0.00
2023-01-25T00:13:15.926Z,0.00
2023-01-25T00:14:15.855Z,0.00
2023-01-25T00:15:15.856Z,0.00
2023-01-25T00:16:15.898Z,0.00
2023-01-25T00:17:15.829Z,0.00
2023-01-25T00:18:15.867Z,0.00
2023-01-25T00:19:15.805Z,0.00
2023-01-25T00:20:15.791Z,0.00
2023-01-25T00:21:15.785Z,0.00
2023-01-25T00:22:15.773Z,0.00
2023-01-25T00:23:15.818Z,0.00
2023-01-25T00:24:15.792Z,0.00
2023-01-25T00:25:15.749Z,0.00
2023-01-25T00:26:15.717Z,0.00
2023-01-25T00:27:15.733Z,0.00
2023-01-25T00:28:15.745Z,0.00
2023-01-25T00:29:15.706Z,0.00
2023-01-25T00:30:15.683Z,0.00
2023-01-25T00:31:15.777Z,0.00
2023-01-25T00:32:15.740Z,0.00
2023-01-25T00:33:15.700Z,0.00
2023-01-25T00:34:15.643Z,0.00
2023-01-25T00:35:15.636Z,0.00
2023-01-25T00:36:15.616Z,0.00
2023-01-25T00:37:15.617Z,0.00
2023-01-25T00:38:15.648Z,0.00
2023-01-25T00:39:15.587Z,0.00
2023-01-25T00:40:15.582Z,0.00
2023-01-25T00:41:15.575Z,0.00
2023-01-25T00:42:15.547Z,0.00
2023-01-25T00:43:15.589Z,0.00
2023-01-25T00:44:15.522Z,0.00
2023-01-25T00:45:15.524Z,0.00
2023-01-25T00:46:15.526Z,0.00
2023-01-25T00:47:15.489Z,0.00
2023-01-25T00:48:15.521Z,0.00
2023-01-25T00:49:15.470Z,0.00
2023-01-25T00:50:15.468Z,0.00
2023-01-25T00:51:15.454Z,0.00
2023-01-25T00:52:15.443Z,0.00
2023-01-25T00:53:15.474Z,0.00
2023-01-25T00:54:15.414Z,0.00
2023-01-25T00:55:15.407Z,0.00
2023-01-25T00:56:15.398Z,0.00
2023-01-25T00:57:15.413Z,0.00
2023-01-25T00:58:15.412Z,0.00
2023-01-25T00:59:15.363Z,0.00
2023-01-25T01:00:15.345Z,0.00
2023-01-25T01:01:15.432Z,0.00
2023-01-25T01:02:15.344Z,0.00
2023-01-25T01:03:15.372Z,0.00
2023-01-25T01:04:15.344Z,0.00
2023-01-25T01:05:15.377Z,0.00
2023-01-25T01:06:15.290Z,0.00
2023-01-25T01:07:15.280Z,0.00
2023-01-25T01:08:15.301Z,0.00
2023-01-25T01:09:15.247Z,0.00
2023-01-25T01:10:15.238Z,0.00
2023-01-25T01:11:15.234Z,0.00
2023-01-25T01:12:15.222Z,0.00
2023-01-25T01:13:15.248Z,0.00
2023-01-25T01:14:15.207Z,0.00
2023-01-25T01:15:15.185Z,0.00
2023-01-25T01:16:15.214Z,0.00
2023-01-25T01:17:15.159Z,0.00
2023-01-25T01:18:15.200Z,0.00
2023-01-25T01:19:15.134Z,0.00
2023-01-25T01:20:15.129Z,0.00
2023-01-25T01:21:15.115Z,0.00
2023-01-25T01:22:15.088Z,0.00
2023-01-25T01:23:15.131Z,0.00
2023-01-25T01:24:15.189Z,0.00
2023-01-25T01:25:15.083Z,0.00
2023-01-25T01:26:15.070Z,0.00
2023-01-25T01:27:15.054Z,0.00
2023-01-25T01:28:15.073Z,0.00
2023-01-25T01:29:15.019Z,0.00
2023-01-25T01:30:15.006Z,0.00
2023-01-25T01:31:15.005Z,0.00
2023-01-25T01:32:15.192Z,0.00
2023-01-25T01:33:15.009Z,0.00
2023-01-25T01:34:14.965Z,0.00
2023-01-25T01:35:14.949Z,0.00
2023-01-25T01:36:14.934Z,0.00
2023-01-25T01:37:14.929Z,0.00
2023-01-25T01:38:14.913Z,0.00
2023-01-25T01:39:14.947Z,0.00
2023-01-25T01:40:14.903Z,0.00
2023-01-25T01:41:14.886Z,0.00
2023-01-25T01:42:14.852Z,0.00
2023-01-25T01:43:14.899Z,0.00
2023-01-25T01:44:14.892Z,0.00
2023-01-25T01:45:14.839Z,0.00
2023-01-25T01:46:14.896Z,0.00
2023-01-25T01:47:14.815Z,0.00
2023-01-25T01:48:14.809Z,0.00
2023-01-25T01:49:14.831Z,0.00
2023-01-25T01:50:14.775Z,0.00
2023-01-25T01:51:14.764Z,0.00
2023-01-25T01:52:14.771Z,0.00
2023-01-25T01:53:14.748Z,0.00
2023-01-25T01:54:14.774Z,0.00
2023-01-25T01:55:14.727Z,0.00
2023-01-25T01:56:14.731Z,0.00
2023-01-25T01:57:14.711Z,0.00
2023-01-25T01:58:14.690Z,0.00
2023-01-25T01:59:14.721Z,0.00
2023-01-25T02:00:14.678Z,0.00
2023-01-25T02:01:14.685Z,0.00
2023-01-25T02:02:14.724Z,0.00
2023-01-25T02:03:14.629Z,0.00
2023-01-25T02:04:14.669Z,0.00
2023-01-25T02:05:14.611Z,0.00
2023-01-25T02:06:14.613Z,0.00
2023-01-25T02:07:14.596Z,0.00
2023-01-25T02:08:14.587Z,0.00
2023-01-25T02:09:14.711Z,0.00
2023-01-25T02:10:14.573Z,0.00
2023-01-25T02:11:14.539Z,0.00
2023-01-25T02:12:14.549Z,0.00
2023-01-25T02:13:14.544Z,0.00
2023-01-25T02:14:14.560Z,0.00
2023-01-25T02:15:14.508Z,0.00
2023-01-25T02:16:14.575Z,0.00
2023-01-25T02:17:14.482Z,0.00
2023-01-25T02:18:14.482Z,0.00
2023-01-25T02:19:14.496Z,0.00
2023-01-25T02:20:14.437Z,0.00
2023-01-25T02:21:14.472Z,0.00
2023-01-25T02:22:14.429Z,0.00
2023-01-25T02:23:14.421Z,0.00
2023-01-25T02:24:14.519Z,0.00
2023-01-25T02:25:14.408Z,0.00
2023-01-25T02:26:14.391Z,0.00
2023-01-25T02:27:14.380Z,0.00
2023-01-25T02:28:14.394Z,0.00
2023-01-25T02:29:14.414Z,0.00
2023-01-25T02:30:14.357Z,0.00
2023-01-25T02:31:14.441Z,0.00
2023-01-25T02:32:14.357Z,0.00
2023-01-25T02:33:14.318Z,0.00
2023-01-25T02:34:14.346Z,0.00
2023-01-25T02:35:14.292Z,0.00
2023-01-25T02:36:14.275Z,0.00
2023-01-25T02:37:14.269Z,0.00
2023-01-25T02:38:14.265Z,0.00
2023-01-25T02:39:14.281Z,0.00
2023-01-25T02:40:14.234Z,0.00
2023-01-25T02:41:14.207Z,0.00
2023-01-25T02:42:14.215Z,0.00
2023-01-25T02:43:14.184Z,0.00
2023-01-25T02:44:14.213Z,0.00
2023-01-25T02:45:14.178Z,0.00
2023-01-25T02:46:14.179Z,0.00
2023-01-25T02:47:14.146Z,0.00
2023-01-25T02:48:14.139Z,0.00
2023-01-25T02:49:14.167Z,0.00
2023-01-25T02:50:15.909Z,0.00
2023-01-25T02:51:14.117Z,0.00
2023-01-25T02:52:14.097Z,0.00
2023-01-25T02:53:14.102Z,0.00
2023-01-25T02:54:14.127Z,0.00
2023-01-25T02:55:14.054Z,0.00
2023-01-25T02:56:14.051Z,0.00
2023-01-25T02:57:14.035Z,0.00
2023-01-25T02:58:14.028Z,0.00
2023-01-25T02:59:14.071Z,0.00
2023-01-25T03:00:14.021Z,0.00
2023-01-25T03:01:14.038Z,0.00
2023-01-25T03:02:13.995Z,0.00
2023-01-25T03:03:13.995Z,0.00
2023-01-25T03:04:14.001Z,0.00
2023-01-25T03:05:13.948Z,0.00
2023-01-25T03:06:13.926Z,0.00
2023-01-25T03:07:13.936Z,0.00
2023-01-25T03:08:13.946Z,0.00
2023-01-25T03:09:13.945Z,0.00
2023-01-25T03:10:13.888Z,0.00
2023-01-25T03:11:13.887Z,0.00
2023-01-25T03:12:13.892Z,0.00
2023-01-25T03:13:13.893Z,0.00
2023-01-25T03:14:13.905Z,0.00
2023-01-25T03:15:13.827Z,0.00
2023-01-25T03:16:13.913Z,0.00
2023-01-25T03:17:13.823Z,0.00
2023-01-25T03:18:13.818Z,0.00
2023-01-25T03:19:13.896Z,0.00
2023-01-25T03:20:13.788Z,0.00
2023-01-25T03:21:13.774Z,0.00
2023-01-25T03:22:13.776Z,0.00
2023-01-25T03:23:13.749Z,0.00
2023-01-25T03:24:13.793Z,0.00
2023-01-25T03:25:13.765Z,0.00
2023-01-25T03:26:13.719Z,0.00
2023-01-25T03:27:13.697Z,0.00
2023-01-25T03:28:13.695Z,0.00
2023-01-25T03:29:13.669Z,0.00
2023-01-25T03:30:13.723Z,0.00
2023-01-25T03:31:13.739Z,0.00
2023-01-25T03:32:13.716Z,0.00
2023-01-25T03:33:13.641Z,0.00
2023-01-25T03:34:13.637Z,0.00
2023-01-25T03:35:13.647Z,0.00
2023-01-25T03:36:13.656Z,0.00
2023-01-25T03:37:13.594Z,0.00
2023-01-25T03:38:13.572Z,0.00
2023-01-25T03:39:13.577Z,0.00
2023-01-25T03:40:13.608Z,0.00
2023-01-25T03:41:13.560Z,0.00
2023-01-25T03:42:13.513Z,0.00
2023-01-25T03:43:13.501Z,0.00
2023-01-25T03:44:13.543Z,0.00
2023-01-25T03:45:13.545Z,0.00
2023-01-25T03:46:13.491Z,0.00
2023-01-25T03:47:13.517Z,0.00
2023-01-25T03:48:13.479Z,0.00
2023-01-25T03:49:13.451Z,0.00
2023-01-25T03:50:13.482Z,0.00
2023-01-25T03:51:13.439Z,0.00
2023-01-25T03:52:13.411Z,0.00
2023-01-25T03:53:13.400Z,0.00
2023-01-25T03:54:13.401Z,0.00
2023-01-25T03:55:13.431Z,0.00
2023-01-25T03:56:13.374Z,0.00
2023-01-25T03:57:13.372Z,0.00
2023-01-25T03:58:13.359Z,0.00
2023-01-25T03:59:13.347Z,0.00
2023-01-25T04:00:13.371Z,0.00
2023-01-25T04:01:13.374Z,0.00
2023-01-25T04:02:13.344Z,0.00
2023-01-25T04:03:13.297Z,0.00
2023-01-25T04:04:13.290Z,0.00
2023-01-25T04:05:13.327Z,0.00
2023-01-25T04:06:13.286Z,0.00
2023-01-25T04:07:13.232Z,0.00
2023-01-25T04:08:13.233Z,0.00
2023-01-25T04:09:13.222Z,0.00
2023-01-25T04:10:13.252Z,0.00
2023-01-25T04:11:13.197Z,0.00
2023-01-25T04:12:13.195Z,0.00
2023-01-25T04:13:13.168Z,0.00
2023-01-25T04:14:13.186Z,0.00
2023-01-25T04:15:13.193Z,0.00
2023-01-25T04:16:13.176Z,0.00
2023-01-25T04:17:13.133Z,0.00
2023-01-25T04:18:13.126Z,0.00
2023-01-25T04:19:13.104Z,0.00
2023-01-25T04:20:13.141Z,0.00
2023-01-25T04:21:13.087Z,0.00
2023-01-25T04:22:13.087Z,0.00
2023-01-25T04:23:13.094Z,0.00
2023-01-25T04:24:13.085Z,0.00
2023-01-25T04:25:13.096Z,0.00
2023-01-25T04:26:13.034Z,0.00
2023-01-25T04:27:13.010Z,0.00
2023-01-25T04:28:13.017Z,0.00
2023-01-25T04:29:13.022Z,0.00
2023-01-25T04:30:13.034Z,0.00
2023-01-25T04:31:12.995Z,0.00
2023-01-25T04:32:13.112Z,0.00
2023-01-25T04:33:12.953Z,0.00
2023-01-25T04:34:12.942Z,0.00
2023-01-25T04:35:12.973Z,0.00
2023-01-25T04:36:12.918Z,0.00
2023-01-25T04:37:12.903Z,0.00
2023-01-25T04:38:12.911Z,0.00
2023-01-25T04:39:12.873Z,0.00
2023-01-25T04:40:12.926Z,0.00
2023-01-25T04:41:12.867Z,0.00
2023-01-25T04:42:12.857Z,0.00
2023-01-25T04:43:12.833Z,0.00
2023-01-25T04:44:12.839Z,0.00
2023-01-25T04:45:12.869Z,0.00
2023-01-25T04:46:12.842Z,0.00
2023-01-25T04:47:12.811Z,0.00
2023-01-25T04:48:12.800Z,0.00
2023-01-25T04:49:12.778Z,0.00
2023-01-25T04:50:12.818Z,0.00
2023-01-25T04:51:12.746Z,0.00
2023-01-25T04:52:12.738Z,0.00
2023-01-25T04:53:12.729Z,0.00
2023-01-25T04:54:12.741Z,0.00
2023-01-25T04:55:12.854Z,0.00
2023-01-25T04:56:12.697Z,0.00
2023-01-25T04:57:12.685Z,0.00
2023-01-25T04:58:12.734Z,0.00
2023-01-25T04:59:12.664Z,0.00
2023-01-25T05:00:12.738Z,0.00
2023-01-25T05:01:12.690Z,0.00
2023-01-25T05:02:12.656Z,0.00
2023-01-25T05:03:12.619Z,0.00
2023-01-25T05:04:12.612Z,0.00
2023-01-25T05:05:12.627Z,0.00
2023-01-25T05:06:12.584Z,0.00
2023-01-25T05:07:12.567Z,0.00
2023-01-25T05:08:12.562Z,0.00
2023-01-25T05:09:12.556Z,0.00
2023-01-25T05:10:12.595Z,0.00
2023-01-25T05:11:12.517Z,0.00
2023-01-25T05:12:12.519Z,0.00
2023-01-25T05:13:12.511Z,0.00
2023-01-25T05:14:12.499Z,0.00
2023-01-25T05:15:12.684Z,0.00
2023-01-25T05:16:12.502Z,0.00
2023-01-25T05:17:12.465Z,0.00
2023-01-25T05:18:12.462Z,0.00
2023-01-25T05:19:12.443Z,0.00
2023-01-25T05:20:12.544Z,0.00
2023-01-25T05:21:12.417Z,0.00
2023-01-25T05:22:12.395Z,0.00
2023-01-25T05:23:12.407Z,0.00
2023-01-25T05:24:12.430Z,0.00
2023-01-25T05:25:12.421Z,0.00
2023-01-25T05:26:12.377Z,0.00
2023-01-25T05:27:12.356Z,0.00
2023-01-25T05:28:12.352Z,0.00
2023-01-25T05:29:12.319Z,0.00
2023-01-25T05:30:12.375Z,0.00
2023-01-25T05:31:12.359Z,0.00
2023-01-25T05:32:12.385Z,0.00
2023-01-25T05:33:12.278Z,0.00
2023-01-25T05:34:12.263Z,0.00
2023-01-25T05:35:12.307Z,0.00
2023-01-25T05:36:12.263Z,0.00
2023-01-25T05:37:12.239Z,0.00
2023-01-25T05:38:12.238Z,0.00
2023-01-25T05:39:12.217Z,0.00
2023-01-25T05:40:12.242Z,0.00
2023-01-25T05:41:12.181Z,0.00
2023-01-25T05:42:12.185Z,0.00
2023-01-25T05:43:12.168Z,0.00
2023-01-25T05:44:12.159Z,0.00
2023-01-25T05:45:12.244Z,0.00
2023-01-25T05:46:12.213Z,0.00
2023-01-25T05:47:12.125Z,0.00
2023-01-25T05:48:12.116Z,0.00
2023-01-25T05:49:12.105Z,0.00
2023-01-25T05:50:12.154Z,0.00
2023-01-25T05:51:12.084Z,0.00
2023-01-25T05:52:12.095Z,0.00
2023-01-25T05:53:12.058Z,0.00
2023-01-25T05:54:12.052Z,0.00
2023-01-25T05:55:14.867Z,0.00
2023-01-25T05:56:12.012Z,0.00
2023-01-25T05:57:12.024Z,0.00
2023-01-25T05:58:12.006Z,0.00
2023-01-25T05:59:12.003Z,0.00
2023-01-25T06:00:12.031Z,0.00
2023-01-25T06:01:11.962Z,0.00
2023-01-25T06:02:12.019Z,0.00
2023-01-25T06:03:12.027Z,0.00
2023-01-25T06:04:11.930Z,0.00
2023-01-25T06:05:12.046Z,0.00
2023-01-25T06:06:11.919Z,0.00
2023-01-25T06:07:11.929Z,0.00
2023-01-25T06:08:11.910Z,0.00
2023-01-25T06:09:11.874Z,0.00
2023-01-25T06:10:11.943Z,0.00
2023-01-25T06:11:11.857Z,0.00
2023-01-25T06:12:11.864Z,0.00
2023-01-25T06:13:11.841Z,0.00
2023-01-25T06:14:11.842Z,0.00
2023-01-25T06:15:12.157Z,0.00
2023-01-25T06:16:11.885Z,0.00
2023-01-25T06:17:11.782Z,0.00
2023-01-25T06:18:11.807Z,0.00
2023-01-25T06:19:11.766Z,0.00
2023-01-25T06:20:11.810Z,4.00
2023-01-25T06:21:11.787Z,0.00
2023-01-25T06:22:11.753Z,0.00
2023-01-25T06:23:11.718Z,4.00
2023-01-25T06:24:11.828Z,4.00
2023-01-25T06:25:12.068Z,4.00
2023-01-25T06:26:11.730Z,0.00
2023-01-25T06:27:11.674Z,4.00
2023-01-25T06:28:11.672Z,4.00
2023-01-25T06:29:11.649Z,4.00
2023-01-25T06:30:11.646Z,8.00
2023-01-25T06:31:11.710Z,8.00
2023-01-25T06:32:11.631Z,12.00
2023-01-25T06:33:11.597Z,16.00
2023-01-25T06:34:11.611Z,12.00
2023-01-25T06:35:11.699Z,16.00
2023-01-25T06:36:11.654Z,20.00
2023-01-25T06:37:11.555Z,20.00
2023-01-25T06:38:11.550Z,24.00
2023-01-25T06:39:11.529Z,28.00
2023-01-25T06:40:11.539Z,28.00
2023-01-25T06:41:12.137Z,36.00
2023-01-25T06:42:11.511Z,36.00
2023-01-25T06:43:11.501Z,40.00
2023-01-25T06:44:11.493Z,48.00
2023-01-25T06:45:11.773Z,48.00
2023-01-25T06:46:11.561Z,52.00
2023-01-25T06:47:11.465Z,56.00
2023-01-25T06:48:12.888Z,64.00
2023-01-25T06:49:11.440Z,68.00
2023-01-25T06:50:11.422Z,72.00
2023-01-25T06:51:11.446Z,84.00
2023-01-25T06:52:11.405Z,92.00
2023-01-25T06:53:11.381Z,112.00
2023-01-25T06:54:11.392Z,124.00
2023-01-25T06:55:11.699Z,132.00
2023-01-25T06:56:12.088Z,140.00
2023-01-25T06:57:11.340Z,152.00
2023-01-25T06:58:11.343Z,160.00
2023-01-25T06:59:11.329Z,164.00
2023-01-25T07:00:11.313Z,176.00
2023-01-25T07:01:11.320Z,184.00
2023-01-25T07:02:11.296Z,196.00
2023-01-25T07:03:11.321Z,208.00
2023-01-25T07:04:11.293Z,216.00
2023-01-25T07:05:11.731Z,228.00
2023-01-25T07:06:11.338Z,240.00
2023-01-25T07:07:11.231Z,256.00
2023-01-25T07:08:11.206Z,264.00
2023-01-25T07:09:11.205Z,280.00
2023-01-25T07:10:11.207Z,296.00
2023-01-25T07:11:11.228Z,308.00
2023-01-25T07:12:11.173Z,312.00
2023-01-25T07:13:11.155Z,316.00
2023-01-25T07:14:11.152Z,328.00
2023-01-25T07:15:11.521Z,336.00
2023-01-25T07:16:11.185Z,352.00
2023-01-25T07:17:11.117Z,364.00
2023-01-25T07:18:16.350Z,368.00
2023-01-25T07:19:12.097Z,372.00
2023-01-25T07:20:11.084Z,380.00
2023-01-25T07:21:11.124Z,396.00
2023-01-25T07:22:11.056Z,404.00
2023-01-25T07:23:11.051Z,408.00
2023-01-25T07:24:11.109Z,416.00
2023-01-25T07:25:11.307Z,436.00
2023-01-25T07:26:11.053Z,456.00
2023-01-25T07:27:11.006Z,488.00
2023-01-25T07:28:10.981Z,528.00
2023-01-25T07:29:11.386Z,572.00
2023-01-25T07:30:10.964Z,608.00
2023-01-25T07:31:11.056Z,636.00
2023-01-25T07:32:10.942Z,664.00
2023-01-25T07:33:10.939Z,688.00
2023-01-25T07:34:10.927Z,704.00
2023-01-25T07:35:11.190Z,716.00
2023-01-25T07:36:10.952Z,736.00
2023-01-25T07:37:10.903Z,756.00
2023-01-25T07:38:11.729Z,776.00
2023-01-25T07:39:10.888Z,796.00
2023-01-25T07:40:10.847Z,816.00
2023-01-25T07:41:10.952Z,824.00
2023-01-25T07:42:10.877Z,840.00
2023-01-25T07:43:10.853Z,852.00
2023-01-25T07:44:10.823Z,868.00
2023-01-25T07:45:11.165Z,880.00
2023-01-25T07:46:10.847Z,908.00
2023-01-25T07:47:10.777Z,940.00
2023-01-25T07:48:10.774Z,952.00
2023-01-25T07:49:10.783Z,944.00
2023-01-25T07:50:10.756Z,940.00
2023-01-25T07:51:10.796Z,928.00
2023-01-25T07:52:10.717Z,940.00
2023-01-25T07:53:10.718Z,968.00
2023-01-25T07:54:10.701Z,992.00
2023-01-25T07:55:11.176Z,1024.00
2023-01-25T07:56:10.708Z,1028.00
2023-01-25T07:57:10.666Z,1040.00
2023-01-25T07:58:10.666Z,1076.00
2023-01-25T07:59:10.675Z,1108.00
2023-01-25T08:00:10.650Z,1124.00
2023-01-25T08:01:10.703Z,1136.00
2023-01-25T08:02:10.610Z,1168.00
2023-01-25T08:03:10.603Z,1216.00
2023-01-25T08:04:10.727Z,1256.00
2023-01-25T08:05:10.920Z,1304.00
2023-01-25T08:06:10.640Z,1340.00
2023-01-25T08:07:10.574Z,1356.00
2023-01-25T08:08:10.564Z,1372.00
2023-01-25T08:09:10.554Z,1404.00
2023-01-25T08:10:10.543Z,1420.00
2023-01-25T08:11:10.581Z,1396.00
2023-01-25T08:12:10.518Z,1392.00
2023-01-25T08:13:10.508Z,1404.00
2023-01-25T08:14:10.498Z,1400.00
2023-01-25T08:15:10.883Z,1416.00
2023-01-25T08:16:10.454Z,1448.00
2023-01-25T08:17:10.487Z,1492.00
2023-01-25T08:18:10.486Z,1532.00
2023-01-25T08:19:10.455Z,1560.00
2023-01-25T08:20:10.421Z,1536.00
2023-01-25T08:21:10.411Z,1520.00
2023-01-25T08:22:10.524Z,1544.00
2023-01-25T08:23:10.375Z,1572.00
2023-01-25T08:24:10.407Z,1568.00
2023-01-25T08:25:10.795Z,1556.00
2023-01-25T08:26:10.359Z,1564.00
2023-01-25T08:27:10.405Z,1536.00
2023-01-25T08:28:10.377Z,1556.00
2023-01-25T08:29:10.325Z,1564.00
2023-01-25T08:30:10.289Z,1500.00
2023-01-25T08:31:10.297Z,1488.00
2023-01-25T08:32:10.364Z,1536.00
2023-01-25T08:33:10.273Z,1652.00
2023-01-25T08:34:10.251Z,1772.00
2023-01-25T08:35:10.680Z,1820.00
2023-01-25T08:36:10.243Z,1828.00
2023-01-25T08:37:10.280Z,1840.00
2023-01-25T08:38:10.234Z,1860.00
2023-01-25T08:39:10.207Z,1908.00
2023-01-25T08:40:10.590Z,1968.00
2023-01-25T08:41:10.189Z,2012.00
2023-01-25T08:42:10.216Z,2044.00
2023-01-25T08:43:10.174Z,2100.00
2023-01-25T08:44:10.159Z,2188.00
2023-01-25T08:45:10.451Z,2204.00
2023-01-25T08:46:10.131Z,2204.00
2023-01-25T08:47:10.150Z,2196.00
2023-01-25T08:48:10.098Z,2216.00
2023-01-25T08:49:10.071Z,2192.00
2023-01-25T08:50:10.455Z,2164.00
2023-01-25T08:51:10.056Z,2148.00
2023-01-25T08:52:10.123Z,2140.00
2023-01-25T08:53:10.063Z,2176.00
2023-01-25T08:54:10.041Z,2244.00
2023-01-25T08:55:10.059Z,2224.00
2023-01-25T08:56:10.051Z,2192.00
2023-01-25T08:57:10.056Z,2084.00
2023-01-25T08:58:10.005Z,2144.00
2023-01-25T08:59:09.995Z,2076.00
2023-01-25T09:00:10.370Z,2116.00
2023-01-25T09:01:09.961Z,2136.00
2023-01-25T09:02:09.996Z,2272.00
2023-01-25T09:03:09.941Z,2392.00
2023-01-25T09:04:09.943Z,2416.00
2023-01-25T09:05:09.906Z,2424.00
2023-01-25T09:06:09.893Z,2456.00
2023-01-25T09:07:09.950Z,2416.00
2023-01-25T09:08:09.888Z,2252.00
2023-01-25T09:09:09.887Z,2252.00
2023-01-25T09:10:10.188Z,2212.00
2023-01-25T09:11:09.839Z,2360.00
2023-01-25T09:12:09.899Z,2308.00
2023-01-25T09:13:09.865Z,2360.00
2023-01-25T09:14:09.891Z,2400.00
2023-01-25T09:15:10.182Z,2492.00
2023-01-25T09:16:09.770Z,2532.00
2023-01-25T09:17:09.807Z,2628.00
2023-01-25T09:18:09.779Z,2732.00
2023-01-25T09:19:09.763Z,2828.00
2023-01-25T09:20:09.941Z,2912.00
2023-01-25T09:21:09.757Z,3004.00
2023-01-25T09:22:09.765Z,3044.00
2023-01-25T09:23:09.731Z,2980.00
2023-01-25T09:24:09.786Z,2784.00
2023-01-25T09:25:09.708Z,2848.00
2023-01-25T09:26:09.671Z,2760.00
2023-01-25T09:27:09.716Z,2884.00
2023-01-25T09:28:09.657Z,3092.00
2023-01-25T09:29:09.771Z,3100.00
2023-01-25T09:30:16.547Z,3020.00
2023-01-25T09:31:20.909Z,2820.00
2023-01-25T09:32:10.759Z,2780.00
2023-01-25T09:33:09.598Z,2748.00
2023-01-25T09:34:09.591Z,2732.00
2023-01-25T09:35:10.362Z,2740.00
2023-01-25T09:36:09.555Z,2708.00
2023-01-25T09:37:09.595Z,2748.00
2023-01-25T09:38:09.523Z,2760.00
2023-01-25T09:39:09.533Z,2752.00
2023-01-25T09:40:09.822Z,2508.00
2023-01-25T09:41:09.513Z,2408.00
2023-01-25T09:42:15.014Z,2652.00
2023-01-25T09:43:10.466Z,2968.00
2023-01-25T09:44:14.841Z,3092.00
2023-01-25T09:45:10.451Z,3004.00
2023-01-25T09:46:09.480Z,2984.00
2023-01-25T09:47:09.508Z,2924.00
2023-01-25T09:48:09.436Z,3076.00
2023-01-25T09:49:11.495Z,3112.00
2023-01-25T09:50:09.783Z,3240.00
2023-01-25T09:51:09.423Z,3384.00
2023-01-25T09:52:09.469Z,3468.00
2023-01-25T09:53:09.358Z,3588.00
2023-01-25T09:54:09.354Z,3548.00
2023-01-25T09:55:09.351Z,3536.00
2023-01-25T09:56:09.342Z,3528.00
2023-01-25T09:57:09.393Z,3464.00
2023-01-25T09:58:09.336Z,3360.00
2023-01-25T09:59:09.333Z,3280.00
2023-01-25T10:00:09.892Z,3340.00
2023-01-25T10:01:14.120Z,3380.00
2023-01-25T10:02:10.379Z,3484.00
2023-01-25T10:03:09.302Z,3588.00
2023-01-25T10:04:09.281Z,3540.00
2023-01-25T10:05:09.243Z,3412.00
2023-01-25T10:06:09.223Z,3360.00
2023-01-25T10:07:09.297Z,3348.00
2023-01-25T10:08:09.190Z,3320.00
2023-01-25T10:09:09.205Z,3180.00
2023-01-25T10:10:09.401Z,3080.00
2023-01-25T10:11:09.174Z,3376.00
2023-01-25T10:12:09.205Z,3588.00
2023-01-25T10:13:09.151Z,3724.00
2023-01-25T10:14:09.134Z,3840.00
2023-01-25T10:15:09.135Z,3960.00
2023-01-25T10:16:17.619Z,3560.00
2023-01-25T10:17:10.168Z,3560.00
2023-01-25T10:18:09.103Z,3684.00
2023-01-25T10:19:09.075Z,3244.00
2023-01-25T10:20:09.381Z,3176.00
2023-01-25T10:21:09.083Z,3492.00
2023-01-25T10:22:09.109Z,3744.00
2023-01-25T10:23:09.041Z,4140.00
2023-01-25T10:24:09.075Z,4120.00
2023-01-25T10:25:09.057Z,4100.00
2023-01-25T10:26:09.019Z,4168.00
2023-01-25T10:27:09.041Z,4224.00
2023-01-25T10:28:08.987Z,4412.00
2023-01-25T10:29:08.977Z,4560.00
2023-01-25T10:30:09.234Z,4664.00
2023-01-25T10:31:09.060Z,4536.00
2023-01-25T10:32:08.976Z,4704.00
2023-01-25T10:33:08.926Z,4600.00
2023-01-25T10:34:08.909Z,4592.00
2023-01-25T10:35:09.102Z,4460.00
2023-01-25T10:36:08.876Z,4456.00
2023-01-25T10:37:08.910Z,4336.00
2023-01-25T10:38:08.879Z,4412.00
2023-01-25T10:39:08.877Z,4464.00
2023-01-25T10:40:08.895Z,4648.00
2023-01-25T10:41:08.882Z,4476.00
2023-01-25T10:42:08.904Z,4184.00
2023-01-25T10:43:08.859Z,3708.00
2023-01-25T10:44:08.836Z,3220.00
2023-01-25T10:45:09.064Z,3048.00
2023-01-25T10:46:08.791Z,3296.00
2023-01-25T10:47:08.826Z,3564.00
2023-01-25T10:48:08.782Z,3756.00
2023-01-25T10:49:08.751Z,3556.00
2023-01-25T10:50:08.746Z,3624.00
2023-01-25T10:51:08.725Z,3656.00
2023-01-25T10:52:08.782Z,3920.00
2023-01-25T10:53:08.719Z,3892.00
2023-01-25T10:54:08.690Z,3924.00
2023-01-25T10:55:08.897Z,4008.00
2023-01-25T10:56:08.664Z,4248.00
2023-01-25T10:57:08.672Z,4476.00
2023-01-25T10:58:08.706Z,4624.00
2023-01-25T10:59:08.679Z,4664.00
2023-01-25T11:00:08.632Z,4704.00
2023-01-25T11:01:08.622Z,4844.00
2023-01-25T11:02:08.592Z,5032.00
2023-01-25T11:03:08.666Z,5028.00
2023-01-25T11:04:08.595Z,4988.00
2023-01-25T11:05:08.925Z,4940.00
2023-01-25T11:06:08.561Z,4848.00
2023-01-25T11:07:08.551Z,4908.00
2023-01-25T11:08:08.574Z,4804.00
2023-01-25T11:09:08.535Z,4204.00
2023-01-25T11:10:08.890Z,3772.00
2023-01-25T11:11:08.513Z,3692.00
2023-01-25T11:12:08.489Z,3832.00
2023-01-25T11:13:08.522Z,3948.00
2023-01-25T11:14:08.482Z,4264.00
2023-01-25T11:15:08.504Z,4712.00
2023-01-25T11:16:08.538Z,5112.00
2023-01-25T11:17:08.460Z,5360.00
2023-01-25T11:18:08.470Z,5356.00
2023-01-25T11:19:08.414Z,5160.00
2023-01-25T11:20:08.733Z,4840.00
2023-01-25T11:21:08.421Z,4516.00
2023-01-25T11:22:08.383Z,4328.00
2023-01-25T11:23:08.401Z,4208.00
2023-01-25T11:24:08.377Z,4140.00
2023-01-25T11:25:08.360Z,3936.00
2023-01-25T11:26:08.352Z,3808.00
2023-01-25T11:27:08.324Z,3672.00
2023-01-25T11:28:08.333Z,3560.00
2023-01-25T11:29:08.301Z,3580.00
2023-01-25T11:30:08.688Z,3580.00
2023-01-25T11:31:08.345Z,3412.00
2023-01-25T11:32:08.268Z,3416.00
2023-01-25T11:33:08.312Z,3428.00
2023-01-25T11:34:08.270Z,3496.00
2023-01-25T11:35:08.248Z,3732.00
2023-01-25T11:36:08.208Z,3844.00
2023-01-25T11:37:08.209Z,3872.00
2023-01-25T11:38:08.263Z,3916.00
2023-01-25T11:39:08.191Z,3932.00
2023-01-25T11:40:08.520Z,4040.00
2023-01-25T11:41:08.192Z,4104.00
2023-01-25T11:42:08.153Z,3976.00
2023-01-25T11:43:08.179Z,4104.00
2023-01-25T11:44:08.182Z,4188.00
2023-01-25T11:45:08.158Z,4000.00
2023-01-25T11:46:08.164Z,3808.00
2023-01-25T11:47:08.088Z,3836.00
2023-01-25T11:48:08.135Z,3984.00
2023-01-25T11:49:08.077Z,4156.00
2023-01-25T11:50:08.371Z,4332.00
2023-01-25T11:51:08.061Z,4444.00
2023-01-25T11:52:08.054Z,4456.00
2023-01-25T11:53:08.096Z,4412.00
2023-01-25T11:54:08.056Z,4340.00
2023-01-25T11:55:08.002Z,4208.00
2023-01-25T11:56:07.992Z,4120.00
2023-01-25T11:57:07.997Z,4116.00
2023-01-25T11:58:08.038Z,4064.00
2023-01-25T11:59:07.957Z,4044.00
2023-01-25T12:00:08.330Z,4060.00
2023-01-25T12:01:07.951Z,4068.00
2023-01-25T12:02:07.945Z,3836.00
2023-01-25T12:03:08.017Z,3832.00
2023-01-25T12:04:08.002Z,3608.00
2023-01-25T12:05:16.321Z,3472.00
2023-01-25T12:06:08.920Z,3360.00
2023-01-25T12:07:07.894Z,3360.00
2023-01-25T12:08:07.941Z,3380.00
2023-01-25T12:09:07.879Z,3320.00
2023-01-25T12:10:08.194Z,3292.00
2023-01-25T12:11:07.834Z,3252.00
2023-01-25T12:12:07.849Z,3240.00
2023-01-25T12:13:07.872Z,3132.00
2023-01-25T12:14:07.804Z,3040.00
2023-01-25T12:15:07.792Z,2956.00
2023-01-25T12:16:08.043Z,2888.00
2023-01-25T12:17:07.769Z,2864.00
2023-01-25T12:18:07.828Z,2836.00
2023-01-25T12:19:07.762Z,2884.00
2023-01-25T12:20:08.113Z,2896.00
2023-01-25T12:21:08.455Z,2832.00
2023-01-25T12:22:07.705Z,2756.00
2023-01-25T12:23:07.760Z,2708.00
2023-01-25T12:24:07.767Z,2700.00
2023-01-25T12:25:07.681Z,2692.00
2023-01-25T12:26:07.699Z,2708.00
2023-01-25T12:27:07.674Z,2776.00
2023-01-25T12:28:07.720Z,2828.00
2023-01-25T12:29:07.655Z,2876.00
2023-01-25T12:30:07.971Z,2920.00
2023-01-25T12:31:07.774Z,2932.00
2023-01-25T12:32:07.601Z,2936.00
2023-01-25T12:33:14.411Z,2908.00
2023-01-25T12:34:08.599Z,2872.00
2023-01-25T12:35:07.577Z,2832.00
2023-01-25T12:36:07.595Z,2772.00
2023-01-25T12:37:07.550Z,2732.00
2023-01-25T12:38:07.602Z,2724.00
2023-01-25T12:39:07.530Z,2704.00
2023-01-25T12:40:07.848Z,2620.00
2023-01-25T12:41:07.498Z,2544.00
2023-01-25T12:42:07.512Z,2532.00
2023-01-25T12:43:07.518Z,2556.00
2023-01-25T12:44:07.486Z,2572.00